createdAt,value
2019-04-26T00:00:20.266Z,11.90
2019-04-26T00:01:20.257Z,12.20
2019-04-26T00:02:20.243Z,11.80
2019-04-26T00:03:20.234Z,11.80
2019-04-26T00:04:20.246Z,12.50
2019-04-26T00:05:20.209Z,12.20
2019-04-26T00:06:20.188Z,12.90
2019-04-26T00:07:20.713Z,12.90
2019-04-26T00:08:20.168Z,12.50
2019-04-26T00:09:20.201Z,13.30
2019-04-26T00:10:20.157Z,12.70
2019-04-26T00:11:20.144Z,13.10
2019-04-26T00:12:20.143Z,12.90
2019-04-26T00:13:20.123Z,13.80
2019-04-26T00:14:20.122Z,12.20
2019-04-26T00:15:20.097Z,12.70
2019-04-26T00:16:21.033Z,12.80
2019-04-26T00:17:20.124Z,13.00
2019-04-26T00:18:20.959Z,13.20
2019-04-26T00:19:21.284Z,13.70
2019-04-26T00:20:21.091Z,13.50
2019-04-26T00:21:20.035Z,13.30
2019-04-26T00:22:20.018Z,14.00
2019-04-26T00:23:20.010Z,14.40
2019-04-26T00:24:20.025Z,13.70
2019-04-26T00:25:19.987Z,14.40
2019-04-26T00:26:19.990Z,14.00
2019-04-26T00:27:19.964Z,14.00
2019-04-26T00:28:21.121Z,14.50
2019-04-26T00:29:19.950Z,14.60
2019-04-26T00:30:19.998Z,14.00
2019-04-26T00:31:19.934Z,15.20
2019-04-26T00:32:19.905Z,14.50
2019-04-26T00:33:19.898Z,14.60
2019-04-26T00:34:19.890Z,13.80
2019-04-26T00:35:19.988Z,14.50
2019-04-26T00:36:20.790Z,14.00
2019-04-26T00:37:20.210Z,14.00
2019-04-26T00:38:20.374Z,14.20
2019-04-26T00:39:20.335Z,14.40
2019-04-26T00:40:20.327Z,14.40
2019-04-26T00:41:20.605Z,14.00
2019-04-26T00:42:20.632Z,14.90
2019-04-26T00:43:20.570Z,14.70
2019-04-26T00:44:20.801Z,13.40
2019-04-26T00:45:20.874Z,14.40
2019-04-26T00:46:20.885Z,14.90
2019-04-26T00:47:19.754Z,14.50
2019-04-26T00:48:19.740Z,14.80
2019-04-26T00:49:19.733Z,14.30
2019-04-26T00:50:19.750Z,15.00
2019-04-26T00:51:19.705Z,14.90
2019-04-26T00:52:19.694Z,15.40
2019-04-26T00:53:19.714Z,15.60
2019-04-26T00:54:20.131Z,14.90
2019-04-26T00:55:19.715Z,15.50
2019-04-26T00:56:20.152Z,15.80
2019-04-26T00:57:20.322Z,16.10
2019-04-26T00:58:20.437Z,16.90
2019-04-26T00:59:20.496Z,16.80
2019-04-26T01:00:19.644Z,16.60
2019-04-26T01:01:20.696Z,17.30
2019-04-26T01:02:20.586Z,17.00
2019-04-26T01:03:20.622Z,17.50
2019-04-26T01:04:19.564Z,15.90
2019-04-26T01:05:19.583Z,16.30
2019-04-26T01:06:19.591Z,16.50
2019-04-26T01:07:19.532Z,16.10
2019-04-26T01:08:19.520Z,15.10
2019-04-26T01:09:19.546Z,15.40
2019-04-26T01:10:19.720Z,14.70
2019-04-26T01:11:19.737Z,15.40
2019-04-26T01:12:19.768Z,15.80
2019-04-26T01:13:19.934Z,15.50
2019-04-26T01:14:19.982Z,15.40
2019-04-26T01:15:21.445Z,16.10
2019-04-26T01:16:20.197Z,15.20
2019-04-26T01:17:20.338Z,16.60
2019-04-26T01:18:20.201Z,15.80
2019-04-26T01:19:20.278Z,16.40
2019-04-26T01:20:20.356Z,20.80
2019-04-26T01:21:20.536Z,24.00
2019-04-26T01:22:19.417Z,25.70
2019-04-26T01:23:19.356Z,23.30
2019-04-26T01:24:19.404Z,22.40
2019-04-26T01:25:19.360Z,18.50
2019-04-26T01:26:19.348Z,24.20
2019-04-26T01:27:19.563Z,22.50
2019-04-26T01:28:19.693Z,21.60
2019-04-26T01:29:19.653Z,19.70
2019-04-26T01:30:19.655Z,17.70
2019-04-26T01:31:19.950Z,17.80
2019-04-26T01:32:20.303Z,17.70
2019-04-26T01:33:20.126Z,16.30
2019-04-26T01:34:20.303Z,16.80
2019-04-26T01:36:20.564Z,16.50
2019-04-26T01:37:19.661Z,17.20
2019-04-26T01:38:19.253Z,18.00
2019-04-26T01:39:19.680Z,18.70
2019-04-26T01:40:19.819Z,19.60
2019-04-26T01:41:19.798Z,19.00
2019-04-26T01:42:20.842Z,18.50
2019-04-26T01:43:20.213Z,17.50
2019-04-26T01:44:20.172Z,15.50
2019-04-26T01:45:20.186Z,15.70
2019-04-26T01:46:19.106Z,15.50
2019-04-26T01:47:20.034Z,14.00
2019-04-26T01:48:19.082Z,15.00
2019-04-26T01:50:20.984Z,15.50
2019-04-26T01:51:21.116Z,14.90
2019-04-26T01:52:19.057Z,14.70
2019-04-26T01:53:19.025Z,14.30
2019-04-26T01:54:19.005Z,13.70
2019-04-26T01:55:19.009Z,14.20
2019-04-26T01:56:18.994Z,13.50
2019-04-26T01:57:19.006Z,13.10
2019-04-26T01:58:18.980Z,13.70
2019-04-26T01:59:18.958Z,12.10
2019-04-26T02:00:18.947Z,12.70
2019-04-26T02:01:18.946Z,11.50
2019-04-26T02:02:18.965Z,12.00
2019-04-26T02:03:18.926Z,11.50
2019-04-26T02:04:18.899Z,10.90
2019-04-26T02:05:18.924Z,11.50
2019-04-26T02:06:25.279Z,11.20
2019-04-26T02:07:19.899Z,10.60
2019-04-26T02:08:18.866Z,11.50
2019-04-26T02:09:18.875Z,11.00
2019-04-26T02:10:18.837Z,12.70
2019-04-26T02:11:18.813Z,13.20
2019-04-26T02:12:18.834Z,11.60
2019-04-26T02:13:18.831Z,11.90
2019-04-26T02:14:18.791Z,10.70
2019-04-26T02:15:18.834Z,11.10
2019-04-26T02:16:18.765Z,11.50
2019-04-26T02:17:18.756Z,11.00
2019-04-26T02:18:18.782Z,10.20
2019-04-26T02:19:18.786Z,10.50
2019-04-26T02:20:18.723Z,10.70
2019-04-26T02:21:18.716Z,10.60
2019-04-26T02:22:18.701Z,10.20
2019-04-26T02:23:18.764Z,9.90
2019-04-26T02:24:18.688Z,10.00
2019-04-26T02:25:18.660Z,9.90
2019-04-26T02:26:18.653Z,9.80
2019-04-26T02:27:18.635Z,9.70
2019-04-26T02:28:18.668Z,10.50
2019-04-26T02:29:18.624Z,10.80
2019-04-26T02:30:18.619Z,10.60
2019-04-26T02:31:18.593Z,10.70
2019-04-26T02:32:18.597Z,9.90
2019-04-26T02:33:18.573Z,11.30
2019-04-26T02:34:18.596Z,11.10
2019-04-26T02:35:18.562Z,10.70
2019-04-26T02:36:18.554Z,10.10
2019-04-26T02:37:18.535Z,9.70
2019-04-26T02:38:18.536Z,9.90
2019-04-26T02:39:18.534Z,10.20
2019-04-26T02:40:18.506Z,10.20
2019-04-26T02:41:18.499Z,10.20
2019-04-26T02:42:18.490Z,9.40
2019-04-26T02:43:18.469Z,9.20
2019-04-26T02:44:21.845Z,9.10
2019-04-26T02:45:18.439Z,9.00
2019-04-26T02:46:18.456Z,9.50
2019-04-26T02:47:18.441Z,9.40
2019-04-26T02:48:18.420Z,9.70
2019-04-26T02:49:18.430Z,9.50
2019-04-26T02:50:18.394Z,9.70
2019-04-26T02:51:18.380Z,9.90
2019-04-26T02:52:18.371Z,10.50
2019-04-26T02:53:18.358Z,10.10
2019-04-26T02:54:18.388Z,10.50
2019-04-26T02:55:18.330Z,10.90
2019-04-26T02:56:18.345Z,10.50
2019-04-26T02:57:18.307Z,10.60
2019-04-26T02:58:18.315Z,10.40
2019-04-26T02:59:18.334Z,10.80
2019-04-26T03:00:18.307Z,10.90
2019-04-26T03:01:18.268Z,10.60
2019-04-26T03:02:18.270Z,10.90
2019-04-26T03:03:18.241Z,11.20
2019-04-26T03:04:18.442Z,10.60
2019-04-26T03:05:18.256Z,10.80
2019-04-26T03:06:18.219Z,10.30
2019-04-26T03:07:18.207Z,10.40
2019-04-26T03:09:19.239Z,11.00
2019-04-26T03:10:18.401Z,10.50
2019-04-26T03:11:18.172Z,10.40
2019-04-26T03:12:18.274Z,10.80
2019-04-26T03:13:18.149Z,11.50
2019-04-26T03:14:18.130Z,11.40
2019-04-26T03:15:18.159Z,11.10
2019-04-26T03:17:19.167Z,10.80
2019-04-26T03:18:18.082Z,10.90
2019-04-26T03:19:18.069Z,11.60
2019-04-26T03:20:19.099Z,12.40
2019-04-26T03:21:18.069Z,10.60
2019-04-26T03:22:18.048Z,10.90
2019-04-26T03:23:18.028Z,10.70
2019-04-26T03:24:18.018Z,11.30
2019-04-26T03:25:18.030Z,11.30
2019-04-26T03:26:18.010Z,11.00
2019-04-26T03:27:17.985Z,11.50
2019-04-26T03:28:17.974Z,11.40
2019-04-26T03:29:17.957Z,11.50
2019-04-26T03:30:21.729Z,12.10
2019-04-26T03:31:19.284Z,12.30
2019-04-26T03:33:19.012Z,12.20
2019-04-26T03:35:19.007Z,12.50
2019-04-26T03:36:17.920Z,11.80
2019-04-26T03:37:20.861Z,12.00
2019-04-26T03:38:17.873Z,12.20
2019-04-26T03:39:17.851Z,11.60
2019-04-26T03:40:17.873Z,11.90
2019-04-26T03:41:17.824Z,12.40
2019-04-26T03:42:17.834Z,11.80
2019-04-26T03:43:17.868Z,12.80
2019-04-26T03:44:17.795Z,12.30
2019-04-26T03:45:17.775Z,13.30
2019-04-26T03:46:17.809Z,13.30
2019-04-26T03:47:17.755Z,12.60
2019-04-26T03:49:18.786Z,12.00
2019-04-26T03:50:17.752Z,12.60
2019-04-26T03:51:17.737Z,12.40
2019-04-26T03:52:17.717Z,12.60
2019-04-26T03:53:17.689Z,12.40
2019-04-26T03:54:17.710Z,12.40
2019-04-26T03:55:17.673Z,11.60
2019-04-26T03:56:17.709Z,12.80
2019-04-26T03:57:17.653Z,12.90
2019-04-26T03:58:17.639Z,12.60
2019-04-26T03:59:17.639Z,13.90
2019-04-26T04:00:17.622Z,14.00
2019-04-26T04:01:17.642Z,14.00
2019-04-26T04:02:17.614Z,13.10
2019-04-26T04:03:17.583Z,12.40
2019-04-26T04:04:17.576Z,14.00
2019-04-26T04:05:17.566Z,12.40
2019-04-26T04:06:17.582Z,13.10
2019-04-26T04:07:17.534Z,13.00
2019-04-26T04:08:17.535Z,13.00
2019-04-26T04:09:18.161Z,13.20
2019-04-26T04:10:17.524Z,12.60
2019-04-26T04:11:17.519Z,12.40
2019-04-26T04:12:17.511Z,13.60
2019-04-26T04:13:17.465Z,12.80
2019-04-26T04:14:17.555Z,13.20
2019-04-26T04:15:17.461Z,13.00
2019-04-26T04:16:17.483Z,12.60
2019-04-26T04:17:17.427Z,12.40
2019-04-26T04:19:18.458Z,12.90
2019-04-26T04:20:17.412Z,12.40
2019-04-26T04:21:17.375Z,12.50
2019-04-26T04:22:17.396Z,13.10
2019-04-26T04:23:17.355Z,13.20
2019-04-26T04:24:17.351Z,13.10
2019-04-26T04:25:17.336Z,13.30
2019-04-26T04:26:17.331Z,13.30
2019-04-26T04:27:17.336Z,13.40
2019-04-26T04:28:17.309Z,13.80
2019-04-26T04:29:17.294Z,13.10
2019-04-26T04:30:17.310Z,13.30
2019-04-26T04:31:17.265Z,13.10
2019-04-26T04:32:17.314Z,12.60
2019-04-26T04:33:17.258Z,12.80
2019-04-26T04:34:17.244Z,12.80
2019-04-26T04:35:17.250Z,13.10
2019-04-26T04:36:17.224Z,13.00
2019-04-26T04:37:17.248Z,13.20
2019-04-26T04:38:17.192Z,12.90
2019-04-26T04:39:17.181Z,13.10
2019-04-26T04:40:17.175Z,13.00
2019-04-26T04:41:17.190Z,13.40
2019-04-26T04:42:17.183Z,13.50
2019-04-26T04:43:17.337Z,14.20
2019-04-26T04:44:17.170Z,13.50
2019-04-26T04:45:17.115Z,13.60
2019-04-26T04:47:24.654Z,13.80
2019-04-26T04:48:18.120Z,12.80
2019-04-26T04:49:17.064Z,12.80
2019-04-26T04:51:18.096Z,12.20
2019-04-26T04:52:17.067Z,11.90
2019-04-26T04:53:17.026Z,12.00
2019-04-26T04:54:17.044Z,11.50
2019-04-26T04:55:17.003Z,11.70
2019-04-26T04:56:17.005Z,11.80
2019-04-26T04:57:16.994Z,11.40
2019-04-26T04:58:17.172Z,11.30
2019-04-26T04:59:16.984Z,10.00
2019-04-26T05:00:16.958Z,9.40
2019-04-26T05:01:16.959Z,9.90
2019-04-26T05:02:16.949Z,9.80
2019-04-26T05:03:16.935Z,10.20
2019-04-26T05:04:16.908Z,9.80
2019-04-26T05:05:16.889Z,10.40
2019-04-26T05:06:16.882Z,8.30
2019-04-26T05:07:16.866Z,8.70
2019-04-26T05:08:16.888Z,9.50
2019-04-26T05:09:16.844Z,8.80
2019-04-26T05:10:16.837Z,9.50
2019-04-26T05:11:16.822Z,8.90
2019-04-26T05:12:16.820Z,9.40
2019-04-26T05:13:16.831Z,9.10
2019-04-26T05:14:16.848Z,8.70
2019-04-26T05:15:16.800Z,8.80
2019-04-26T05:16:16.773Z,8.80
2019-04-26T05:17:16.756Z,8.70
2019-04-26T05:18:16.761Z,8.60
2019-04-26T05:19:16.762Z,8.60
2019-04-26T05:20:16.780Z,8.50
2019-04-26T05:21:16.710Z,7.30
2019-04-26T05:22:16.707Z,7.40
2019-04-26T05:23:16.688Z,8.50
2019-04-26T05:24:16.683Z,8.30
2019-04-26T05:25:16.700Z,7.50
2019-04-26T05:26:16.663Z,7.70
2019-04-26T05:27:16.638Z,7.60
2019-04-26T05:28:16.644Z,10.10
2019-04-26T05:29:16.621Z,8.40
2019-04-26T05:30:16.661Z,7.50
2019-04-26T05:31:16.606Z,7.60
2019-04-26T05:32:16.593Z,8.30
2019-04-26T05:33:16.604Z,8.70
2019-04-26T05:34:16.573Z,8.10
2019-04-26T05:35:16.578Z,8.40
2019-04-26T05:36:16.549Z,8.70
2019-04-26T05:37:16.541Z,8.50
2019-04-26T05:38:18.499Z,9.40
2019-04-26T05:39:16.521Z,9.90
2019-04-26T05:40:16.540Z,10.00
2019-04-26T05:41:16.484Z,10.30
2019-04-26T05:42:16.523Z,10.40
2019-04-26T05:43:16.470Z,10.60
2019-04-26T05:44:16.459Z,10.90
2019-04-26T05:45:16.443Z,10.80
2019-04-26T05:47:17.520Z,11.30
2019-04-26T05:49:17.758Z,11.90
2019-04-26T05:50:16.387Z,12.40
2019-04-26T05:51:16.371Z,11.80
2019-04-26T05:52:16.368Z,12.40
2019-04-26T05:53:16.352Z,12.00
2019-04-26T05:54:16.379Z,13.00
2019-04-26T05:55:16.330Z,12.30
2019-04-26T05:56:16.323Z,12.10
2019-04-26T05:57:16.323Z,12.50
2019-04-26T05:58:16.307Z,11.90
2019-04-26T05:59:16.310Z,12.00
2019-04-26T06:00:16.293Z,13.10
2019-04-26T06:01:16.311Z,13.40
2019-04-26T06:03:17.319Z,13.30
2019-04-26T06:04:16.248Z,13.40
2019-04-26T06:05:16.254Z,13.80
2019-04-26T06:06:16.238Z,12.70
2019-04-26T06:07:16.198Z,13.80
2019-04-26T06:08:16.231Z,13.20
2019-04-26T06:09:16.170Z,12.90
2019-04-26T06:10:16.187Z,13.00
2019-04-26T06:11:16.173Z,12.90
2019-04-26T06:12:16.140Z,13.30
2019-04-26T06:13:16.127Z,14.20
2019-04-26T06:14:16.119Z,13.60
2019-04-26T06:15:16.140Z,14.00
2019-04-26T06:16:16.139Z,12.50
2019-04-26T06:17:16.093Z,13.50
2019-04-26T06:18:16.077Z,13.10
2019-04-26T06:19:16.062Z,13.00
2019-04-26T06:20:23.256Z,13.20
2019-04-26T06:21:17.043Z,12.00
2019-04-26T06:22:16.090Z,12.90
2019-04-26T06:23:16.045Z,13.60
2019-04-26T06:24:16.016Z,13.80
2019-04-26T06:25:16.020Z,13.60
2019-04-26T06:26:15.990Z,15.10
2019-04-26T06:27:15.982Z,15.70
2019-04-26T06:28:15.987Z,15.90
2019-04-26T06:29:15.981Z,15.10
2019-04-26T06:30:15.976Z,14.90
2019-04-26T06:31:15.950Z,14.40
2019-04-26T06:32:16.037Z,14.40
2019-04-26T06:33:15.910Z,15.40
2019-04-26T06:34:16.953Z,15.70
2019-04-26T06:35:15.901Z,16.40
2019-04-26T06:36:16.975Z,17.70
2019-04-26T06:37:15.866Z,16.10
2019-04-26T06:38:15.871Z,14.40
2019-04-26T06:39:15.865Z,15.20
2019-04-26T06:40:15.875Z,16.70
2019-04-26T06:41:15.818Z,15.90
2019-04-26T06:42:15.812Z,15.60
2019-04-26T06:43:15.819Z,15.50
2019-04-26T06:44:15.837Z,16.20
2019-04-26T06:45:15.772Z,17.20
2019-04-26T06:46:15.791Z,16.40
2019-04-26T06:47:15.752Z,16.90
2019-04-26T06:48:15.764Z,15.50
2019-04-26T06:49:15.764Z,14.60
2019-04-26T06:50:15.726Z,15.00
2019-04-26T06:51:24.317Z,14.90
2019-04-26T06:52:16.699Z,15.80
2019-04-26T06:53:15.693Z,15.90
2019-04-26T06:54:15.703Z,14.60
2019-04-26T06:55:15.671Z,14.20
2019-04-26T06:56:15.654Z,14.70
2019-04-26T06:57:15.659Z,13.70
2019-04-26T06:58:15.651Z,13.80
2019-04-26T06:59:17.273Z,13.50
2019-04-26T07:00:15.607Z,15.20
2019-04-26T07:01:15.604Z,15.50
2019-04-26T07:02:15.619Z,16.00
2019-04-26T07:03:15.588Z,15.50
2019-04-26T07:04:15.828Z,14.60
2019-04-26T07:05:15.596Z,14.50
2019-04-26T07:06:15.545Z,15.70
2019-04-26T07:07:15.563Z,15.40
2019-04-26T07:08:15.565Z,14.90
2019-04-26T07:09:15.539Z,15.20
2019-04-26T07:10:15.518Z,13.40
2019-04-26T07:11:15.491Z,14.10
2019-04-26T07:12:15.484Z,13.30
2019-04-26T07:13:15.471Z,12.50
2019-04-26T07:14:15.482Z,12.70
2019-04-26T07:15:28.013Z,11.60
2019-04-26T07:16:22.825Z,13.30
2019-04-26T07:17:16.433Z,12.50
2019-04-26T07:18:15.415Z,12.40
2019-04-26T07:19:16.431Z,10.40
2019-04-26T07:20:15.381Z,10.00
2019-04-26T07:21:16.391Z,10.80
2019-04-26T07:22:15.367Z,11.20
2019-04-26T07:23:15.476Z,10.60
2019-04-26T07:24:15.390Z,11.00
2019-04-26T07:25:17.738Z,11.60
2019-04-26T07:26:15.428Z,11.50
2019-04-26T07:27:15.464Z,12.50
2019-04-26T07:28:15.505Z,11.50
2019-04-26T07:29:15.529Z,11.80
2019-04-26T07:30:15.544Z,12.90
2019-04-26T07:31:15.302Z,13.30
2019-04-26T07:32:15.311Z,12.50
2019-04-26T07:33:15.353Z,14.90
2019-04-26T07:34:15.261Z,14.60
2019-04-26T07:35:15.369Z,14.00
2019-04-26T07:36:15.252Z,14.90
2019-04-26T07:38:16.265Z,12.90
2019-04-26T07:39:19.932Z,12.10
2019-04-26T07:40:16.168Z,11.20
2019-04-26T07:41:15.179Z,12.60
2019-04-26T07:42:15.149Z,12.60
2019-04-26T07:43:15.140Z,13.70
2019-04-26T07:44:15.197Z,13.80
2019-04-26T07:45:15.123Z,13.60
2019-04-26T07:46:15.104Z,13.40
2019-04-26T07:47:15.462Z,14.40
2019-04-26T07:48:15.075Z,14.90
2019-04-26T07:49:15.107Z,13.70
2019-04-26T07:50:15.062Z,13.40
2019-04-26T07:51:15.051Z,13.80
2019-04-26T07:52:15.036Z,12.70
2019-04-26T07:53:15.035Z,13.70
2019-04-26T07:54:15.067Z,13.70
2019-04-26T07:55:15.070Z,11.80
2019-04-26T07:56:15.011Z,13.60
2019-04-26T07:57:14.982Z,13.90
2019-04-26T07:58:14.978Z,13.20
2019-04-26T07:59:14.995Z,14.50
2019-04-26T08:00:15.454Z,13.40
2019-04-26T08:01:14.944Z,15.10
2019-04-26T08:02:15.907Z,14.60
2019-04-26T08:03:15.162Z,15.10
2019-04-26T08:04:14.941Z,15.40
2019-04-26T08:05:14.909Z,16.00
2019-04-26T08:06:14.883Z,16.20
2019-04-26T08:07:15.334Z,15.50
2019-04-26T08:08:15.043Z,18.10
2019-04-26T08:09:26.521Z,16.70
2019-04-26T08:10:15.841Z,18.20
2019-04-26T08:11:15.076Z,18.10
2019-04-26T08:12:14.828Z,18.40
2019-04-26T08:13:15.218Z,22.20
2019-04-26T08:14:14.831Z,23.20
2019-04-26T08:15:15.683Z,21.60
2019-04-26T08:16:14.794Z,24.20
2019-04-26T08:17:14.972Z,24.90
2019-04-26T08:18:15.276Z,23.40
2019-04-26T08:19:14.775Z,24.90
2019-04-26T08:20:15.493Z,21.70
2019-04-26T08:21:17.369Z,22.30
2019-04-26T08:22:20.466Z,22.50
2019-04-26T08:23:37.179Z,23.50
2019-04-26T08:24:16.700Z,22.90
2019-04-26T08:25:17.528Z,23.00
2019-04-26T08:26:15.527Z,23.40
2019-04-26T08:27:22.829Z,23.90
2019-04-26T08:28:16.489Z,23.00
2019-04-26T08:29:14.758Z,22.60
2019-04-26T08:30:17.783Z,22.50
2019-04-26T08:31:15.531Z,22.40
2019-04-26T08:32:15.610Z,20.30
2019-04-26T08:33:16.159Z,20.40
2019-04-26T08:34:14.578Z,17.70
2019-04-26T08:35:18.849Z,16.40
2019-04-26T08:36:15.555Z,16.00
2019-04-26T08:37:15.655Z,15.60
2019-04-26T08:38:21.949Z,17.30
2019-04-26T08:39:15.920Z,17.70
2019-04-26T08:40:23.215Z,18.80
2019-04-26T08:41:15.566Z,17.40
2019-04-26T08:42:21.222Z,18.20
2019-04-26T08:43:15.495Z,17.20
2019-04-26T08:44:14.573Z,18.70
2019-04-26T08:45:15.261Z,19.00
2019-04-26T08:46:14.497Z,19.00
2019-04-26T08:47:21.023Z,18.60
2019-04-26T08:48:15.432Z,19.60
2019-04-26T08:49:15.161Z,19.10
2019-04-26T08:50:15.200Z,20.40
2019-04-26T08:51:15.372Z,20.20
2019-04-26T08:52:15.388Z,20.40
2019-04-26T08:53:14.384Z,19.10
2019-04-26T08:54:14.389Z,20.50
2019-04-26T08:55:14.362Z,19.60
2019-04-26T08:56:15.326Z,19.50
2019-04-26T08:57:14.361Z,18.30
2019-04-26T08:58:14.326Z,20.30
2019-04-26T08:59:14.320Z,18.80
2019-04-26T09:00:15.465Z,19.10
2019-04-26T09:01:14.303Z,18.80
2019-04-26T09:02:14.313Z,18.10
2019-04-26T09:03:14.288Z,17.50
2019-04-26T09:04:14.266Z,17.60
2019-04-26T09:05:14.282Z,19.00
2019-04-26T09:06:14.243Z,17.90
2019-04-26T09:07:14.277Z,17.50
2019-04-26T09:08:14.229Z,18.00
2019-04-26T09:09:17.739Z,15.50
2019-04-26T09:10:14.202Z,15.00
2019-04-26T09:11:25.556Z,14.40
2019-04-26T09:12:22.882Z,14.10
2019-04-26T09:13:15.183Z,15.20
2019-04-26T09:14:14.169Z,15.70
2019-04-26T09:15:14.149Z,15.50
2019-04-26T09:16:14.238Z,15.50
2019-04-26T09:17:14.120Z,15.20
2019-04-26T09:19:15.160Z,17.20
2019-04-26T09:20:14.094Z,17.80
2019-04-26T09:21:17.609Z,16.60
2019-04-26T09:22:14.119Z,15.90
2019-04-26T09:23:14.047Z,17.70
2019-04-26T09:24:14.064Z,18.10
2019-04-26T09:25:14.041Z,19.00
2019-04-26T09:26:14.114Z,19.30
2019-04-26T09:27:17.224Z,20.80
2019-04-26T09:28:15.004Z,21.30
2019-04-26T09:29:13.995Z,22.00
2019-04-26T09:30:13.990Z,21.10
2019-04-26T09:31:15.361Z,21.60
2019-04-26T09:32:15.000Z,21.40
2019-04-26T09:33:14.033Z,20.90
2019-04-26T09:34:13.954Z,21.80
2019-04-26T09:35:15.291Z,22.10
2019-04-26T09:36:13.912Z,22.90
2019-04-26T09:37:13.928Z,24.90
2019-04-26T09:38:13.901Z,25.00
2019-04-26T09:39:13.870Z,26.50
2019-04-26T09:40:20.960Z,26.20
2019-04-26T09:41:14.852Z,26.90
2019-04-26T09:42:13.875Z,25.40
2019-04-26T09:43:15.051Z,26.70
2019-04-26T09:44:13.847Z,29.00
2019-04-26T09:45:13.817Z,28.40
2019-04-26T09:46:13.802Z,26.90
2019-04-26T09:47:13.835Z,28.20
2019-04-26T09:48:13.785Z,27.70
2019-04-26T09:49:13.765Z,27.40
2019-04-26T09:50:15.491Z,28.40
2019-04-26T09:51:13.749Z,27.00
2019-04-26T09:52:13.760Z,27.10
2019-04-26T09:53:13.751Z,28.90
2019-04-26T09:54:15.389Z,28.50
2019-04-26T09:55:13.698Z,29.00
2019-04-26T09:56:13.699Z,31.80
2019-04-26T09:57:13.678Z,30.90
2019-04-26T09:58:13.700Z,30.70
2019-04-26T09:59:13.660Z,32.10
2019-04-26T10:00:14.305Z,31.20
2019-04-26T10:01:13.646Z,30.50
2019-04-26T10:02:13.636Z,33.10
2019-04-26T10:03:13.665Z,33.90
2019-04-26T10:04:13.611Z,33.10
2019-04-26T10:05:13.662Z,32.90
2019-04-26T10:06:13.594Z,33.30
2019-04-26T10:07:13.565Z,34.50
2019-04-26T10:08:14.537Z,34.60
2019-04-26T10:09:13.562Z,33.40
2019-04-26T10:10:22.816Z,33.80
2019-04-26T10:11:14.562Z,33.20
2019-04-26T10:12:13.520Z,33.30
2019-04-26T10:13:15.065Z,33.00
2019-04-26T10:14:13.497Z,33.10
2019-04-26T10:15:13.496Z,32.90
2019-04-26T10:16:13.485Z,34.00
2019-04-26T10:17:15.643Z,33.80
2019-04-26T10:18:13.502Z,35.50
2019-04-26T10:19:13.453Z,35.80
2019-04-26T10:20:13.444Z,36.20
2019-04-26T10:21:13.449Z,36.70
2019-04-26T10:22:13.438Z,36.00
2019-04-26T10:23:13.430Z,36.30
2019-04-26T10:24:13.401Z,37.60
2019-04-26T10:25:16.772Z,37.50
2019-04-26T10:26:13.384Z,37.60
2019-04-26T10:27:13.354Z,35.90
2019-04-26T10:28:15.903Z,36.20
2019-04-26T10:29:13.331Z,36.90
2019-04-26T10:30:13.337Z,37.20
2019-04-26T10:31:13.474Z,37.40
2019-04-26T10:32:13.357Z,36.80
2019-04-26T10:33:13.313Z,35.90
2019-04-26T10:34:13.282Z,36.50
2019-04-26T10:35:13.299Z,36.20
2019-04-26T10:36:13.260Z,35.20
2019-04-26T10:37:13.266Z,35.10
2019-04-26T10:38:13.283Z,35.30
2019-04-26T10:39:13.250Z,34.30
2019-04-26T10:40:13.291Z,34.90
2019-04-26T10:41:13.198Z,35.50
2019-04-26T10:42:13.197Z,36.50
2019-04-26T10:43:13.187Z,36.90
2019-04-26T10:44:13.221Z,37.50
2019-04-26T10:45:14.675Z,36.80
2019-04-26T10:46:13.170Z,37.50
2019-04-26T10:47:15.661Z,36.30
2019-04-26T10:48:13.925Z,35.80
2019-04-26T10:49:13.139Z,36.80
2019-04-26T10:50:13.110Z,37.80
2019-04-26T10:51:13.092Z,36.90
2019-04-26T10:52:15.860Z,37.80
2019-04-26T10:53:13.086Z,38.20
2019-04-26T10:54:13.092Z,38.10
2019-04-26T10:55:16.095Z,37.50
2019-04-26T10:57:14.090Z,39.30
2019-04-26T10:58:13.038Z,38.50
2019-04-26T10:59:13.029Z,39.80
2019-04-26T11:00:14.161Z,39.20
2019-04-26T11:01:12.984Z,37.10
2019-04-26T11:02:13.001Z,39.50
2019-04-26T11:03:12.985Z,38.20
2019-04-26T11:04:12.989Z,37.60
2019-04-26T11:05:18.305Z,39.40
2019-04-26T11:06:13.944Z,38.10
2019-04-26T11:07:12.963Z,38.70
2019-04-26T11:08:12.920Z,37.80
2019-04-26T11:09:12.921Z,38.30
2019-04-26T11:10:12.930Z,38.50
2019-04-26T11:11:12.881Z,37.60
2019-04-26T11:12:12.884Z,39.50
2019-04-26T11:13:12.858Z,38.20
2019-04-26T11:14:12.912Z,39.50
2019-04-26T11:15:12.847Z,41.00
2019-04-26T11:16:12.824Z,39.70
2019-04-26T11:17:16.039Z,39.20
2019-04-26T11:18:12.862Z,40.40
2019-04-26T11:19:12.828Z,39.30
2019-04-26T11:20:12.805Z,37.80
2019-04-26T11:21:16.519Z,38.10
2019-04-26T11:22:13.781Z,36.10
2019-04-26T11:23:12.926Z,38.00
2019-04-26T11:24:15.111Z,36.00
2019-04-26T11:25:13.751Z,36.10
2019-04-26T11:26:12.728Z,36.10
2019-04-26T11:27:12.703Z,34.90
2019-04-26T11:28:12.696Z,35.90
2019-04-26T11:29:12.731Z,34.40
2019-04-26T11:30:20.330Z,33.70
2019-04-26T11:31:13.659Z,34.00
2019-04-26T11:32:12.664Z,33.80
2019-04-26T11:33:12.823Z,34.00
2019-04-26T11:34:12.634Z,33.10
2019-04-26T11:35:12.660Z,31.30
2019-04-26T11:36:12.609Z,31.20
2019-04-26T11:37:13.464Z,30.10
2019-04-26T11:38:12.590Z,30.10
2019-04-26T11:39:12.599Z,31.00
2019-04-26T11:40:14.605Z,31.20
2019-04-26T11:41:12.563Z,31.00
2019-04-26T11:42:13.230Z,31.40
2019-04-26T11:43:15.854Z,31.60
2019-04-26T11:44:13.524Z,31.40
2019-04-26T11:45:14.631Z,31.40
2019-04-26T11:46:12.520Z,33.10
2019-04-26T11:47:12.500Z,31.20
2019-04-26T11:48:12.486Z,31.50
2019-04-26T11:49:12.475Z,29.60
2019-04-26T11:50:16.043Z,30.20
2019-04-26T11:51:12.486Z,30.40
2019-04-26T11:52:12.442Z,30.70
2019-04-26T11:53:12.433Z,29.70
2019-04-26T11:54:12.420Z,28.80
2019-04-26T11:55:14.781Z,29.80
2019-04-26T11:56:12.434Z,28.00
2019-04-26T11:57:13.575Z,28.70
2019-04-26T11:58:12.395Z,28.20
2019-04-26T11:59:12.362Z,28.30
2019-04-26T12:00:12.362Z,29.50
2019-04-26T12:01:12.370Z,28.50
2019-04-26T12:02:15.915Z,31.40
2019-04-26T12:03:12.318Z,30.50
2019-04-26T12:04:12.314Z,32.20
2019-04-26T12:05:12.330Z,33.90
2019-04-26T12:06:13.313Z,31.80
2019-04-26T12:07:12.272Z,30.60
2019-04-26T12:08:12.265Z,31.50
2019-04-26T12:09:12.271Z,33.80
2019-04-26T12:10:12.240Z,31.20
2019-04-26T12:11:18.185Z,34.60
2019-04-26T12:12:14.317Z,33.00
2019-04-26T12:13:12.263Z,33.30
2019-04-26T12:14:20.034Z,34.80
2019-04-26T12:15:13.183Z,34.90
2019-04-26T12:16:14.539Z,31.70
2019-04-26T12:17:13.155Z,30.10
2019-04-26T12:19:14.279Z,32.90
2019-04-26T12:20:12.126Z,30.10
2019-04-26T12:21:12.167Z,30.70
2019-04-26T12:22:12.118Z,31.20
2019-04-26T12:23:13.619Z,35.20
2019-04-26T12:24:13.088Z,30.90
2019-04-26T12:25:12.082Z,33.50
2019-04-26T12:26:12.134Z,36.70
2019-04-26T12:27:12.147Z,35.90
2019-04-26T12:28:12.120Z,35.80
2019-04-26T12:29:14.750Z,38.20
2019-04-26T12:30:12.057Z,36.70
2019-04-26T12:31:14.902Z,34.20
2019-04-26T12:33:13.047Z,35.50
2019-04-26T12:34:14.165Z,34.60
2019-04-26T12:35:12.955Z,37.30
2019-04-26T12:36:13.325Z,35.20
2019-04-26T12:37:12.593Z,35.50
2019-04-26T12:38:12.935Z,35.60
2019-04-26T12:39:11.909Z,37.20
2019-04-26T12:40:12.393Z,35.90
2019-04-26T12:41:11.948Z,36.40
2019-04-26T12:42:12.630Z,37.00
2019-04-26T12:43:11.876Z,36.20
2019-04-26T12:44:11.894Z,37.60
2019-04-26T12:45:12.265Z,37.50
2019-04-26T12:46:14.172Z,37.20
2019-04-26T12:47:11.865Z,37.00
2019-04-26T12:48:12.339Z,38.00
2019-04-26T12:49:11.815Z,37.20
2019-04-26T12:50:11.799Z,36.20
2019-04-26T12:51:12.303Z,37.30
2019-04-26T12:52:11.811Z,36.70
2019-04-26T12:53:11.752Z,37.40
2019-04-26T12:54:11.757Z,36.80
2019-04-26T12:55:13.753Z,36.20
2019-04-26T12:56:12.738Z,36.50
2019-04-26T12:57:11.746Z,37.70
2019-04-26T12:58:15.167Z,36.90
2019-04-26T12:59:11.708Z,37.30
2019-04-26T13:00:11.702Z,36.90
2019-04-26T13:01:12.093Z,35.50
2019-04-26T13:02:11.698Z,35.30
2019-04-26T13:03:20.085Z,34.90
2019-04-26T13:04:12.635Z,35.50
2019-04-26T13:05:14.520Z,34.90
2019-04-26T13:06:12.733Z,36.80
2019-04-26T13:07:22.753Z,35.70
2019-04-26T13:08:13.209Z,35.20
2019-04-26T13:09:11.591Z,37.10
2019-04-26T13:10:11.581Z,36.10
2019-04-26T13:11:14.879Z,35.90
2019-04-26T13:12:11.573Z,36.50